Time;durP1;ratioP1;P1;durP2;ratioP2;P2;SDS_P1;SDS_P2;PMS_P1;PMS_P2;Temp;Humidity;BMP_temperature;BMP_pressure;BME280_temperature;BME280_humidity;BME280_pressure;Samples;Min_cycle;Max_cycle;Signal;HPM_P1;HPM_P2
2022/09/30 00:04:29;;;;;;;14.30;7.72;;;;;;;;;;10561981;27;20135;-75
2022/09/30 00:09:32;;;;;;;17.23;7.10;;;;;;;;;;10558431;28;20044;-76
2022/09/30 00:14:36;;;;;;;15.33;7.27;;;;;;;;;;10571554;27;20044;-75
2022/09/30 00:19:39;;;;;;;17.80;8.07;;;;;;;;;;10566109;28;20050;-75
2022/09/30 00:24:42;;;;;;;18.58;8.73;;;;;;;;;;10558088;27;20504;-75
2022/09/30 00:29:46;;;;;;;23.27;9.30;;;;;;;;;;10567869;28;20602;-76
2022/09/30 00:34:57;;;;;;;20.48;8.02;;;;;;;;;;10561289;27;20036;-75
2022/09/30 00:40:01;;;;;;;12.40;6.57;;;;;;;;;;10555071;27;20039;-75
2022/09/30 00:45:07;;;;;;;20.30;7.50;;;;;;;;;;10570429;27;20429;-76
2022/09/30 00:50:14;;;;;;;15.43;7.45;;;;;;;;;;10570441;28;20036;-75
2022/09/30 00:55:24;;;;;;;16.30;7.70;;;;;;;;;;10567537;27;20051;-74
2022/09/30 01:00:29;;;;;;;18.88;7.93;;;;;;;;;;10572013;27;20050;-74
2022/09/30 01:05:33;;;;;;;16.90;7.55;;;;;;;;;;10570267;27;20335;-75
2022/09/30 01:10:37;;;;;;;18.13;7.35;;;;;;;;;;10556156;27;20128;-76
2022/09/30 01:15:49;;;;;;;18.95;7.63;;;;;;;;;;10559230;28;20691;-78
2022/09/30 01:21:01;;;;;;;17.55;7.22;;;;;;;;;;10565298;27;20051;-77
2022/09/30 01:26:15;;;;;;;16.58;7.60;;;;;;;;;;10561360;28;20560;-76
2022/09/30 01:31:27;;;;;;;15.77;7.07;;;;;;;;;;10555026;27;20047;-76
2022/09/30 01:36:40;;;;;;;12.32;6.15;;;;;;;;;;10555196;28;20044;-74
2022/09/30 01:41:53;;;;;;;21.75;6.60;;;;;;;;;;10554463;28;20109;-75
2022/09/30 01:47:01;;;;;;;23.27;8.15;;;;;;;;;;10559404;28;20059;-76
2022/09/30 01:52:05;;;;;;;23.00;7.97;;;;;;;;;;10561413;27;20040;-75
2022/09/30 01:57:10;;;;;;;13.65;5.65;;;;;;;;;;10562758;27;20039;-76
2022/09/30 02:02:18;;;;;;;10.95;5.40;;;;;;;;;;10560690;28;20040;-76
2022/09/30 02:07:27;;;;;;;16.63;7.28;;;;;;;;;;10567136;27;20040;-76
2022/09/30 02:12:34;;;;;;;12.23;5.43;;;;;;;;;;10562258;28;20104;-77
2022/09/30 02:17:43;;;;;;;11.75;4.90;;;;;;;;;;10569543;28;20050;-76
2022/09/30 02:22:48;;;;;;;11.55;5.22;;;;;;;;;;10569693;27;20114;-76
2022/09/30 02:27:54;;;;;;;12.27;5.30;;;;;;;;;;10552904;27;20061;-76
2022/09/30 02:32:59;;;;;;;11.75;5.57;;;;;;;;;;10575294;27;20035;-75
2022/09/30 02:38:04;;;;;;;12.02;5.65;;;;;;;;;;10568039;28;20063;-75
2022/09/30 02:43:08;;;;;;;14.20;5.90;;;;;;;;;;10562932;28;20048;-76
2022/09/30 02:48:11;;;;;;;;;;;;;;;;;;10565145;28;20619;-75
2022/09/30 02:53:27;;;;;;;13.13;5.63;;;;;;;;;;10557710;27;19924;-76
2022/09/30 02:58:29;;;;;;;13.57;6.30;;;;;;;;;;10563863;28;20051;-76
2022/09/30 03:03:35;;;;;;;11.00;4.90;;;;;;;;;;10548643;28;20127;-75
2022/09/30 03:08:39;;;;;;;15.23;4.57;;;;;;;;;;10559619;28;20039;-75
2022/09/30 03:14:05;;;;;;;9.05;4.78;;;;;;;;;;10563816;28;20039;-76
2022/09/30 03:19:22;;;;;;;12.23;5.60;;;;;;;;;;10556990;28;20040;-75
2022/09/30 03:24:43;;;;;;;12.30;4.38;;;;;;;;;;10556119;28;20122;-75
2022/09/30 03:29:53;;;;;;;11.80;5.43;;;;;;;;;;10543661;28;20063;-74
2022/09/30 03:35:06;;;;;;;10.00;4.55;;;;;;;;;;10564052;28;20100;-75
2022/09/30 03:40:17;;;;;;;11.35;5.25;;;;;;;;;;10557145;28;20040;-73
2022/09/30 03:45:23;;;;;;;10.80;4.82;;;;;;;;;;10557975;28;20512;-75
2022/09/30 03:50:27;;;;;;;9.95;4.70;;;;;;;;;;10554456;28;20036;-76
2022/09/30 03:55:32;;;;;;;9.07;4.88;;;;;;;;;;10565826;28;20090;-76
2022/09/30 04:00:37;;;;;;;10.00;4.90;;;;;;;;;;10569887;28;20040;-75
2022/09/30 04:05:41;;;;;;;10.63;5.05;;;;;;;;;;10557922;28;20429;-74
2022/09/30 04:10:45;;;;;;;10.20;4.67;;;;;;;;;;10555186;28;20044;-74
2022/09/30 04:15:53;;;;;;;11.05;4.93;;;;;;;;;;10569205;27;20059;-75
2022/09/30 04:20:56;;;;;;;11.57;5.20;;;;;;;;;;10564931;28;20574;-75
2022/09/30 04:26:01;;;;;;;11.02;4.95;;;;;;;;;;10574850;28;23415;-76
2022/09/30 04:31:04;;;;;;;10.77;5.03;;;;;;;;;;10573988;28;20128;-75
2022/09/30 04:36:07;;;;;;;12.43;5.40;;;;;;;;;;10574062;27;20036;-74
2022/09/30 04:41:20;;;;;;;11.40;5.45;;;;;;;;;;10570973;28;20043;-74
2022/09/30 04:46:23;;;;;;;12.60;5.47;;;;;;;;;;10573590;28;20036;-74
2022/09/30 04:51:26;;;;;;;12.30;5.47;;;;;;;;;;10564471;28;20073;-75
2022/09/30 04:56:30;;;;;;;13.07;5.63;;;;;;;;;;10566272;27;20047;-76
2022/09/30 05:01:33;;;;;;;11.52;5.18;;;;;;;;;;10566619;27;20055;-76
2022/09/30 05:06:36;;;;;;;13.07;5.38;;;;;;;;;;10565770;27;20122;-75
2022/09/30 05:11:41;;;;;;;11.90;5.35;;;;;;;;;;10565208;28;20280;-75
2022/09/30 05:16:46;;;;;;;15.30;6.18;;;;;;;;;;10566159;27;20088;-75
2022/09/30 05:21:50;;;;;;;11.48;5.43;;;;;;;;;;10563368;27;20091;-76
2022/09/30 05:26:58;;;;;;;13.15;5.32;;;;;;;;;;10574885;28;20538;-76
2022/09/30 05:32:01;;;;;;;13.07;5.88;;;;;;;;;;10573226;27;20044;-76
2022/09/30 05:37:04;;;;;;;12.23;5.75;;;;;;;;;;10573647;27;20047;-76
2022/09/30 05:42:08;;;;;;;12.77;5.35;;;;;;;;;;10557783;27;20036;-76
2022/09/30 05:47:16;;;;;;;11.38;4.55;;;;;;;;;;10548109;28;20074;-76
2022/09/30 05:52:27;;;;;;;13.43;6.30;;;;;;;;;;10566294;27;20084;-76
2022/09/30 05:57:35;;;;;;;15.32;7.15;;;;;;;;;;10555259;27;20038;-78
2022/09/30 06:02:40;;;;;;;17.48;7.20;;;;;;;;;;10551311;27;20051;-77
2022/09/30 06:07:44;;;;;;;;;;;;;;;;;;10568250;28;20126;-77
2022/09/30 06:12:48;;;;;;;14.50;6.43;;;;;;;;;;10567337;27;19934;-76
2022/09/30 06:17:52;;;;;;;14.15;6.82;;;;;;;;;;10564955;28;20602;-76
2022/09/30 06:22:54;;;;;;;;;;;;;;;;;;10567404;27;20541;-76
2022/09/30 06:27:59;;;;;;;14.00;6.53;;;;;;;;;;10564559;27;20023;-77
2022/09/30 06:33:02;;;;;;;16.70;6.65;;;;;;;;;;10561307;27;20076;-75
2022/09/30 06:38:05;;;;;;;14.30;6.00;;;;;;;;;;10553810;27;20039;-75
2022/09/30 06:43:10;;;;;;;15.63;5.75;;;;;;;;;;10558286;27;20047;-75
2022/09/30 06:48:13;;;;;;;14.48;5.72;;;;;;;;;;10556582;27;20036;-75
2022/09/30 06:53:16;;;;;;;13.48;6.40;;;;;;;;;;10566933;27;20044;-76
2022/09/30 06:58:21;;;;;;;16.25;5.97;;;;;;;;;;10565047;28;20039;-76
2022/09/30 07:03:25;;;;;;;15.55;6.43;;;;;;;;;;10559829;28;20047;-76
2022/09/30 07:08:30;;;;;;;;;;;;;;;;;;10548948;28;20036;-76
2022/09/30 07:13:34;;;;;;;12.05;6.15;;;;;;;;;;10561574;27;19923;-76
2022/09/30 07:18:38;;;;;;;11.23;5.70;;;;;;;;;;10557133;28;20047;-76
2022/09/30 07:23:44;;;;;;;;;;;;;;;;;;10551937;28;20070;-76
2022/09/30 07:28:49;;;;;;;12.13;6.18;;;;;;;;;;10554896;28;19933;-75
2022/09/30 07:34:02;;;;;;;12.35;5.95;;;;;;;;;;10559577;28;20036;-75
2022/09/30 07:39:06;;;;;;;10.80;5.67;;;;;;;;;;10553863;28;20036;-75
2022/09/30 07:44:13;;;;;;;15.05;6.20;;;;;;;;;;10551127;28;20039;-76
2022/09/30 07:49:23;;;;;;;11.13;5.53;;;;;;;;;;10566344;28;20039;-76
2022/09/30 07:54:28;;;;;;;11.75;6.03;;;;;;;;;;10584357;27;20043;-76
2022/09/30 07:59:33;;;;;;;9.27;4.13;;;;;;;;;;10579129;27;20036;-76
2022/09/30 08:04:36;;;;;;;10.57;5.15;;;;;;;;;;10565224;27;20130;-76
2022/09/30 08:09:48;;;;;;;9.75;4.95;;;;;;;;;;10566051;28;20119;-76
2022/09/30 08:14:52;;;;;;;10.10;4.30;;;;;;;;;;10570401;28;20047;-77
2022/09/30 08:19:55;;;;;;;19.08;5.05;;;;;;;;;;10565068;27;20039;-76
2022/09/30 08:24:57;;;;;;;4.13;2.70;;;;;;;;;;10567976;27;20044;-75
2022/09/30 08:30:01;;;;;;;6.75;3.58;;;;;;;;;;10578604;27;20043;-77
2022/09/30 08:35:07;;;;;;;4.50;3.17;;;;;;;;;;10568386;27;20118;-77
2022/09/30 08:40:17;;;;;;;4.30;3.90;;;;;;;;;;10566505;27;20040;-78
2022/09/30 08:45:29;;;;;;;2.80;2.00;;;;;;;;;;10555334;27;20071;-77
2022/09/30 08:50:35;;;;;;;4.00;1.90;;;;;;;;;;10559949;27;20143;-76
2022/09/30 08:55:39;;;;;;;2.53;1.95;;;;;;;;;;10559749;27;20059;-76
2022/09/30 09:00:44;;;;;;;2.22;2.00;;;;;;;;;;10568003;27;20032;-76
2022/09/30 09:05:51;;;;;;;3.20;2.05;;;;;;;;;;10554839;27;20047;-76
2022/09/30 09:10:59;;;;;;;3.47;1.80;;;;;;;;;;10561188;27;20051;-76
2022/09/30 09:16:07;;;;;;;2.78;2.53;;;;;;;;;;10561748;27;20557;-76
2022/09/30 09:21:20;;;;;;;3.40;2.22;;;;;;;;;;10564996;27;20031;-76
2022/09/30 09:26:24;;;;;;;3.03;2.20;;;;;;;;;;10571360;27;20528;-76
2022/09/30 09:31:28;;;;;;;3.72;1.90;;;;;;;;;;10561775;27;20047;-76
2022/09/30 09:36:35;;;;;;;2.15;1.70;;;;;;;;;;10565407;27;20108;-77
2022/09/30 09:41:43;;;;;;;2.65;1.58;;;;;;;;;;10552627;27;20032;-76
2022/09/30 09:46:48;;;;;;;2.03;1.50;;;;;;;;;;10565940;27;20435;-76
2022/09/30 09:51:57;;;;;;;2.58;1.42;;;;;;;;;;10557268;27;20047;-77
2022/09/30 09:57:08;;;;;;;3.88;1.55;;;;;;;;;;10569006;27;20039;-76
2022/09/30 10:02:25;;;;;;;3.40;1.30;;;;;;;;;;10565772;27;20672;-76
2022/09/30 10:07:29;;;;;;;2.80;1.40;;;;;;;;;;10571716;27;20035;-76
2022/09/30 10:12:32;;;;;;;2.10;1.30;;;;;;;;;;10581082;27;20035;-77
2022/09/30 10:17:37;;;;;;;1.60;1.50;;;;;;;;;;10586175;27;20118;-76
2022/09/30 10:22:40;;;;;;;1.60;1.50;;;;;;;;;;10567511;27;20063;-77
2022/09/30 10:27:47;;;;;;;1.55;1.35;;;;;;;;;;10573460;27;20048;-76
2022/09/30 10:32:51;;;;;;;1.30;1.20;;;;;;;;;;10576321;27;20059;-76
2022/09/30 10:37:55;;;;;;;1.85;1.52;;;;;;;;;;10577691;27;20040;-76
2022/09/30 10:42:57;;;;;;;2.65;1.63;;;;;;;;;;10582136;27;20066;-76
2022/09/30 10:48:06;;;;;;;1.55;1.20;;;;;;;;;;10572537;27;20468;-76
2022/09/30 10:53:11;;;;;;;1.48;1.15;;;;;;;;;;10575750;27;20512;-76
2022/09/30 10:58:23;;;;;;;1.98;1.30;;;;;;;;;;10571580;27;20126;-76
2022/09/30 11:03:30;;;;;;;2.72;1.60;;;;;;;;;;10562382;27;20137;-76
2022/09/30 11:08:36;;;;;;;3.20;1.35;;;;;;;;;;10562672;27;20032;-76
2022/09/30 11:13:53;;;;;;;3.25;2.13;;;;;;;;;;10580558;27;20043;-76
2022/09/30 11:19:00;;;;;;;3.22;1.95;;;;;;;;;;10557205;27;20485;-76
2022/09/30 11:24:14;;;;;;;3.45;2.30;;;;;;;;;;10564043;27;20036;-76
2022/09/30 11:29:30;;;;;;;2.10;1.60;;;;;;;;;;10552568;28;20047;-76
2022/09/30 11:34:44;;;;;;;3.03;1.65;;;;;;;;;;10566152;28;20044;-75
2022/09/30 11:40:09;;;;;;;5.53;1.50;;;;;;;;;;10571139;28;20043;-75
2022/09/30 11:45:18;;;;;;;3.22;1.73;;;;;;;;;;10576352;28;20420;-76
2022/09/30 11:50:33;;;;;;;3.10;1.48;;;;;;;;;;10569097;28;20044;-76
2022/09/30 11:55:51;;;;;;;2.08;1.50;;;;;;;;;;10557215;28;20523;-76
2022/09/30 12:00:58;;;;;;;2.33;1.60;;;;;;;;;;10564626;28;20050;-76
2022/09/30 12:06:12;;;;;;;2.00;1.50;;;;;;;;;;10566448;28;20042;-76
2022/09/30 12:11:17;;;;;;;2.92;1.88;;;;;;;;;;10547678;28;20047;-76
2022/09/30 12:16:22;;;;;;;3.25;2.00;;;;;;;;;;10561492;28;20039;-80
2022/09/30 12:21:29;;;;;;;4.85;2.08;;;;;;;;;;10567309;28;20101;-76
2022/09/30 12:26:33;;;;;;;1.95;1.67;;;;;;;;;;10550901;28;20062;-76
2022/09/30 12:31:55;;;;;;;2.25;1.38;;;;;;;;;;10545914;28;20150;-76
2022/09/30 12:37:06;;;;;;;1.90;1.38;;;;;;;;;;10551375;27;20132;-77
2022/09/30 12:42:15;;;;;;;2.08;1.50;;;;;;;;;;10531840;28;20077;-76
2022/09/30 12:47:24;;;;;;;3.50;1.40;;;;;;;;;;10545842;27;20043;-76
2022/09/30 12:52:32;;;;;;;2.78;1.70;;;;;;;;;;10555056;27;20130;-77
2022/09/30 12:57:39;;;;;;;4.10;1.80;;;;;;;;;;10564177;27;20056;-76
2022/09/30 13:02:48;;;;;;;3.75;1.83;;;;;;;;;;10579155;27;20465;-76
2022/09/30 13:08:10;;;;;;;1.52;1.42;;;;;;;;;;10572668;27;20039;-77
2022/09/30 13:13:22;;;;;;;2.30;1.70;;;;;;;;;;10581563;27;20034;-76
2022/09/30 13:18:44;;;;;;;1.92;1.60;;;;;;;;;;10569004;27;20043;-76
2022/09/30 13:23:47;;;;;;;3.13;1.67;;;;;;;;;;10562271;27;20051;-77
2022/09/30 13:28:52;;;;;;;1.83;1.48;;;;;;;;;;10569655;27;20037;-76
2022/09/30 13:34:09;;;;;;;1.75;1.40;;;;;;;;;;10562204;27;20119;-77
2022/09/30 13:39:30;;;;;;;2.38;1.58;;;;;;;;;;10567185;27;20056;-76
2022/09/30 13:44:44;;;;;;;2.25;1.50;;;;;;;;;;10559489;27;20124;-76
2022/09/30 13:49:52;;;;;;;3.28;2.30;;;;;;;;;;10564514;27;20100;-77
2022/09/30 13:54:56;;;;;;;4.78;2.20;;;;;;;;;;10560174;27;20047;-76
2022/09/30 14:00:08;;;;;;;5.55;2.10;;;;;;;;;;10580750;27;20027;-77
2022/09/30 14:05:35;;;;;;;3.47;2.05;;;;;;;;;;10556622;27;20229;-75
2022/09/30 14:10:43;;;;;;;3.88;2.08;;;;;;;;;;10561899;27;20031;-77
2022/09/30 14:16:11;;;;;;;3.63;2.42;;;;;;;;;;10565106;27;20039;-75
2022/09/30 14:21:24;;;;;;;3.58;2.03;;;;;;;;;;10562317;27;20551;-76
2022/09/30 14:26:38;;;;;;;4.30;1.67;;;;;;;;;;10559330;27;20118;-76
2022/09/30 14:31:44;;;;;;;2.95;1.75;;;;;;;;;;10549953;27;20376;-76
2022/09/30 14:36:49;;;;;;;2.92;2.10;;;;;;;;;;10551954;27;20284;-77
2022/09/30 14:41:54;;;;;;;4.03;2.10;;;;;;;;;;10560398;27;20051;-76
2022/09/30 14:47:00;;;;;;;2.75;1.70;;;;;;;;;;10571710;27;20391;-77
2022/09/30 14:52:04;;;;;;;2.72;1.88;;;;;;;;;;10558737;27;20039;-77
2022/09/30 14:57:07;;;;;;;;;;;;;;;;;;10559846;27;20039;-77
2022/09/30 15:02:21;;;;;;;3.67;2.10;;;;;;;;;;10568363;27;19966;-78
2022/09/30 15:07:24;;;;;;;7.15;2.97;;;;;;;;;;10561567;27;20043;-76
2022/09/30 15:12:27;;;;;;;2.40;1.60;;;;;;;;;;10567536;27;20040;-77
2022/09/30 15:17:37;;;;;;;2.08;1.65;;;;;;;;;;10565163;27;20891;-75
2022/09/30 15:22:39;;;;;;;2.72;1.75;;;;;;;;;;10565760;27;20044;-76
2022/09/30 15:27:44;;;;;;;4.18;2.00;;;;;;;;;;10557658;28;20131;-77
2022/09/30 15:32:48;;;;;;;6.60;2.42;;;;;;;;;;10559359;28;20175;-77
2022/09/30 15:37:54;;;;;;;4.55;2.33;;;;;;;;;;10556154;28;20047;-77
2022/09/30 15:43:01;;;;;;;5.45;2.50;;;;;;;;;;10545487;28;20071;-77
2022/09/30 15:48:07;;;;;;;12.40;5.10;;;;;;;;;;10560596;28;20485;-77
2022/09/30 15:53:15;;;;;;;4.85;2.63;;;;;;;;;;10544375;28;20044;-76
2022/09/30 15:58:36;;;;;;;2.83;2.00;;;;;;;;;;10556531;28;20040;-76
2022/09/30 16:03:45;;;;;;;4.93;2.28;;;;;;;;;;10552393;28;20050;-77
2022/09/30 16:08:52;;;;;;;4.05;2.28;;;;;;;;;;10550775;28;20098;-74
2022/09/30 16:13:56;;;;;;;4.72;2.63;;;;;;;;;;10565158;27;20115;-78
2022/09/30 16:19:00;;;;;;;7.85;3.65;;;;;;;;;;10568843;27;20036;-75
2022/09/30 16:24:05;;;;;;;7.72;2.70;;;;;;;;;;10582217;27;20047;-76
2022/09/30 16:29:11;;;;;;;3.67;2.17;;;;;;;;;;10571921;27;20039;-75
2022/09/30 16:34:21;;;;;;;6.60;2.83;;;;;;;;;;10563004;28;20468;-76
2022/09/30 16:39:26;;;;;;;4.95;3.08;;;;;;;;;;10559945;27;20046;-75
2022/09/30 16:44:34;;;;;;;8.80;3.67;;;;;;;;;;10556003;27;20059;-75
2022/09/30 16:49:37;;;;;;;6.10;2.58;;;;;;;;;;10566308;27;20039;-76
2022/09/30 16:54:42;;;;;;;6.22;2.40;;;;;;;;;;10553816;27;20104;-77
2022/09/30 16:59:45;;;;;;;4.57;2.67;;;;;;;;;;10565858;27;20045;-77
2022/09/30 17:04:48;;;;;;;5.53;3.10;;;;;;;;;;10550934;27;20031;-76
2022/09/30 17:09:53;;;;;;;7.40;3.17;;;;;;;;;;10557694;27;20031;-75
2022/09/30 17:14:56;;;;;;;6.38;2.72;;;;;;;;;;10567394;27;20437;-75
2022/09/30 17:20:00;;;;;;;5.25;3.42;;;;;;;;;;10545646;28;20055;-77
2022/09/30 17:25:06;;;;;;;8.20;4.25;;;;;;;;;;10570020;27;20058;-75
2022/09/30 17:30:09;;;;;;;10.35;5.03;;;;;;;;;;10562582;27;20637;-76
2022/09/30 17:35:12;;;;;;;8.03;3.30;;;;;;;;;;10565723;27;20047;-76
2022/09/30 17:45:38;;;;;;;5.38;2.40;;;;;;;;;;10566349;27;20092;-76
2022/09/30 17:50:43;;;;;;;5.20;2.70;;;;;;;;;;10543501;27;20043;-75
2022/09/30 17:55:47;;;;;;;11.45;4.25;;;;;;;;;;10561677;27;20146;-77
2022/09/30 18:00:51;;;;;;;6.18;3.70;;;;;;;;;;10564040;27;20054;-77
2022/09/30 18:05:57;;;;;;;10.00;3.33;;;;;;;;;;10535048;28;20051;-77
2022/09/30 18:11:01;;;;;;;5.22;3.08;;;;;;;;;;10574605;27;20320;-76
2022/09/30 18:16:05;;;;;;;6.00;3.28;;;;;;;;;;10564983;28;20044;-76
2022/09/30 18:21:11;;;;;;;8.82;3.88;;;;;;;;;;10541488;28;20194;-76
2022/09/30 18:26:16;;;;;;;8.70;4.03;;;;;;;;;;10560810;27;20070;-77
2022/09/30 18:31:27;;;;;;;7.82;3.85;;;;;;;;;;10570113;27;20039;-76
2022/09/30 18:36:31;;;;;;;8.27;3.92;;;;;;;;;;10564763;27;20415;-76
2022/09/30 18:41:37;;;;;;;6.32;3.20;;;;;;;;;;10566411;27;20500;-75
2022/09/30 18:46:46;;;;;;;8.55;4.13;;;;;;;;;;10562794;27;20275;-76
2022/09/30 18:51:51;;;;;;;10.27;4.70;;;;;;;;;;10562738;27;20372;-77
2022/09/30 18:56:55;;;;;;;9.50;4.47;;;;;;;;;;10567960;27;20044;-76
2022/09/30 19:01:59;;;;;;;10.68;5.32;;;;;;;;;;10564002;27;20047;-77
2022/09/30 19:07:02;;;;;;;7.93;4.03;;;;;;;;;;10568864;27;20066;-78
2022/09/30 19:12:07;;;;;;;9.73;4.60;;;;;;;;;;10567595;27;20043;-76
2022/09/30 19:17:11;;;;;;;10.85;5.40;;;;;;;;;;10558500;27;20487;-78
2022/09/30 19:22:14;;;;;;;7.18;3.67;;;;;;;;;;10561445;27;20035;-77
2022/09/30 19:27:19;;;;;;;8.15;4.68;;;;;;;;;;10560719;28;20056;-77
2022/09/30 19:32:24;;;;;;;11.60;5.03;;;;;;;;;;10558931;28;20484;-78
2022/09/30 19:37:27;;;;;;;9.15;4.40;;;;;;;;;;10557717;28;20036;-76
2022/09/30 19:42:31;;;;;;;8.50;4.45;;;;;;;;;;10555351;28;20477;-77
2022/09/30 19:47:35;;;;;;;10.43;4.85;;;;;;;;;;10567342;27;20152;-75
2022/09/30 19:52:38;;;;;;;10.52;4.88;;;;;;;;;;10564111;27;20512;-77
2022/09/30 19:57:54;;;;;;;9.15;4.63;;;;;;;;;;10559775;27;20047;-77
2022/09/30 20:02:57;;;;;;;10.57;4.57;;;;;;;;;;10566162;27;20401;-77
2022/09/30 20:08:00;;;;;;;9.13;4.88;;;;;;;;;;10562380;28;20063;-76
2022/09/30 20:13:04;;;;;;;11.23;5.23;;;;;;;;;;10553864;28;20047;-76
2022/09/30 20:18:07;;;;;;;10.60;5.50;;;;;;;;;;10554251;27;20039;-76
2022/09/30 20:23:10;;;;;;;10.20;5.25;;;;;;;;;;10564386;28;20071;-75
2022/09/30 20:28:14;;;;;;;8.00;4.85;;;;;;;;;;10563041;28;20511;-76
2022/09/30 20:33:18;;;;;;;12.45;5.22;;;;;;;;;;10567021;28;20044;-76
2022/09/30 20:38:23;;;;;;;8.80;4.90;;;;;;;;;;10566823;27;20126;-77
2022/09/30 20:43:28;;;;;;;8.60;4.75;;;;;;;;;;10570313;27;20104;-75
2022/09/30 20:48:32;;;;;;;9.95;4.95;;;;;;;;;;10573842;27;20124;-76
2022/09/30 20:53:36;;;;;;;11.32;5.20;;;;;;;;;;10563526;27;20142;-78
2022/09/30 20:58:41;;;;;;;9.50;5.07;;;;;;;;;;10576844;27;20427;-77
2022/09/30 21:03:49;;;;;;;10.10;5.15;;;;;;;;;;10567022;27;20602;-76
2022/09/30 21:08:52;;;;;;;11.25;5.72;;;;;;;;;;10572090;27;20051;-77
2022/09/30 21:13:56;;;;;;;11.15;5.45;;;;;;;;;;10573040;27;20382;-76
2022/09/30 21:18:59;;;;;;;11.30;5.63;;;;;;;;;;10579715;27;20122;-77
2022/09/30 21:24:02;;;;;;;12.68;6.63;;;;;;;;;;10563406;27;20035;-76
2022/09/30 21:29:07;;;;;;;10.90;5.68;;;;;;;;;;10576610;27;20075;-77
2022/09/30 21:34:12;;;;;;;9.85;5.65;;;;;;;;;;10554672;27;20102;-76
2022/09/30 21:39:15;;;;;;;15.30;6.45;;;;;;;;;;10568150;27;20194;-77
2022/09/30 21:44:19;;;;;;;17.58;7.03;;;;;;;;;;10563178;27;20457;-77
2022/09/30 21:49:22;;;;;;;10.60;6.40;;;;;;;;;;10569586;27;20121;-76
2022/09/30 21:54:26;;;;;;;12.52;6.32;;;;;;;;;;10566037;27;20031;-77
2022/09/30 21:59:30;;;;;;;13.10;6.65;;;;;;;;;;10556691;27;20134;-76
2022/09/30 22:04:33;;;;;;;;;;;;;;;;;;10552891;27;20047;-75
2022/09/30 22:09:35;;;;;;;14.18;6.05;;;;;;;;;;10561617;27;19924;-75
2022/09/30 22:14:42;;;;;;;11.32;6.07;;;;;;;;;;10565667;27;20056;-75
2022/09/30 22:19:45;;;;;;;11.18;6.00;;;;;;;;;;10547680;27;20058;-76
2022/09/30 22:24:48;;;;;;;13.87;6.83;;;;;;;;;;10562621;27;20043;-77
2022/09/30 22:29:53;;;;;;;14.25;7.30;;;;;;;;;;10570016;27;20485;-78
2022/09/30 22:40:18;;;;;;;18.38;7.60;;;;;;;;;;10522258;27;20048;-76
2022/09/30 22:45:23;;;;;;;14.18;6.47;;;;;;;;;;10557142;27;20427;-76
2022/09/30 22:50:28;;;;;;;13.57;6.47;;;;;;;;;;10550399;27;20048;-78
2022/09/30 22:55:32;;;;;;;17.75;7.38;;;;;;;;;;10570811;27;20046;-76
2022/09/30 23:00:34;;;;;;;;;;;;;;;;;;10569060;27;20040;-77
2022/09/30 23:05:39;;;;;;;14.02;7.03;;;;;;;;;;10556492;27;20427;-76
2022/09/30 23:10:41;;;;;;;;;;;;;;;;;;10568445;27;20513;-77
2022/09/30 23:15:44;;;;;;;12.50;6.65;;;;;;;;;;10564669;27;19920;-76
2022/09/30 23:20:54;;;;;;;11.90;5.53;;;;;;;;;;10552949;27;20036;-76
2022/09/30 23:25:57;;;;;;;10.02;5.55;;;;;;;;;;10569104;27;20520;-76
2022/09/30 23:31:00;;;;;;;9.63;5.03;;;;;;;;;;10566067;28;20114;-77
2022/09/30 23:36:10;;;;;;;11.35;5.63;;;;;;;;;;10551196;28;20032;-77
2022/09/30 23:41:13;;;;;;;9.98;4.93;;;;;;;;;;10556569;28;20130;-76
2022/09/30 23:46:16;;;;;;;8.60;4.60;;;;;;;;;;10563059;28;20043;-77
2022/09/30 23:51:20;;;;;;;9.25;4.50;;;;;;;;;;10554578;28;20144;-77
2022/09/30 23:56:23;;;;;;;;;;;;;;;;;;10566416;28;20116;-75
